Terminal Aerodrome Forecast
Issued by NWS Lake Charles, LA

Home | Current Version | Previous Version | Text Only | Print | Product List | Glossary On
Versions: 1 2 3 4 5 6 7 8 9 10 11 12 13 14 15
000
FTUS44 KLCH 031720
TAFARA
TAF
KARA 031720Z 0318/0418 19008KT P6SM FEW040
     FM040400 19004KT P6SM SCT015 BKN050
     FM041300 22006KT P6SM VCSH SCT015 BKN040=

USA.gov is the U.S. government's official web portal to all federal, state and local government web resources and services.